Stockholm, Sweden

2:31 PM CET on January 23, 2017 (GMT +0100)
Drevviken | | Change Station

Elev 105 ft 59.22 °N, 18.18 °E | Updated 1 minute ago

Partly Cloudy
Partly Cloudy
39.6 °F
Feels Like 34 °F
N
9.2
Wind Variable Wind from NW
Gusts 16.8 mph

Today
High -- | Low -- °F
--% Chance of Precip.
Yesterday
High -- | Low -- °F
Precip. -- in
Pressure 29.89 in
Visibility -9999.0 miles
Clouds
Windchill 34 °F
Dew Point 30.6 °F
Humidity 70%
Rainfall 0.00 in
Snow Depth Not available.
8:16 AM 3:43 PM
Waning Crescent, 18% visible
METAR ESSB 231320Z 28009KT CAVOK 03/M01 Q1012 R30/19//95
Pressure 29.89 in
Visibility -9999.0 miles
Clouds
Windchill 34 °F
Dew Point 30.6 °F
Humidity 70%
Rainfall 0.00 in
Snow Depth Not available.
8:16 AM 3:43 PM
Waning Crescent, 18% visible
METAR ESSB 231320Z 28009KT CAVOK 03/M01 Q1012 R30/19//95

Get Your Daily Forecast Email!

Thanks for signing up!

Be on the lookout for a verification email in your inbox.

You'll start receiving the daily forecast at 8 AM.

×

10-Day Weather Forecast

×

Almanac

Astronomy

Jan. 23, 2017 Rise Set
Actual Time
Civil Twilight
Nautical Twilight
Astronomical Twilight
Moon
Length of Visible Light
Length of Day
Tomorrow will be .
, % of the Moon is Illuminated

Today's Extremes

Country Highs Country Lows

Community

WunderPhotos

Upload Photos

1,962,540 photos uploaded!

WunderBlog® & News

Nearby

Air Quality

  Air Quality AQ Index Pollutant
Not available.

Snow Depth

Station Depth Elevation

Earthquake Activity

City Distance Mag. Time & Date
Minimum magnitude displayed is 2.5.

Coastal Water Temperatures

Place Temperature

Stations

Nearby Weather Stations

Station Location Temp. Windchill Dew Point Humidity Wind Precip. Elev Updated Type